createdAt,value
2022-07-30T00:04:47.683Z,100425.66
2022-07-30T00:09:49.161Z,100413.66
2022-07-30T00:14:50.746Z,100409.19
2022-07-30T00:19:52.230Z,100417.09
2022-07-30T00:24:55.197Z,100417.22
2022-07-30T00:29:56.698Z,100415.09
2022-07-30T00:34:58.320Z,100411.28
2022-07-30T00:39:59.948Z,100412.81
2022-07-30T00:45:01.478Z,100406.53
2022-07-30T00:50:04.524Z,100408.69
2022-07-30T00:55:07.928Z,100407.84
2022-07-30T01:00:12.747Z,100415.88
2022-07-30T01:05:14.691Z,100412.38
2022-07-30T01:10:16.309Z,100417.69
2022-07-30T01:15:18.788Z,100408.84
2022-07-30T01:20:28.619Z,100406.16
2022-07-30T01:25:52.912Z,100407.53
2022-07-30T01:30:58.064Z,100397.59
2022-07-30T01:36:00.681Z,100411.28
2022-07-30T01:41:03.737Z,100404.16
2022-07-30T01:46:06.784Z,100407.78
2022-07-30T01:51:10.069Z,100410.03
2022-07-30T01:56:16.893Z,100421.38
2022-07-30T02:01:18.792Z,100429.63
2022-07-30T02:06:23.240Z,100426.78
2022-07-30T02:11:43.289Z,100433.94
2022-07-30T02:16:49.354Z,100446.94
2022-07-30T02:21:58.108Z,100444.44
2022-07-30T02:27:04.418Z,100450.63
2022-07-30T02:32:09.695Z,100445.03
2022-07-30T02:37:14.424Z,100457.41
2022-07-30T02:42:16.879Z,100463.59
2022-07-30T02:47:25.632Z,100469.34
2022-07-30T02:52:28.746Z,100470.81
2022-07-30T02:57:32.952Z,100478.97
2022-07-30T03:02:36.470Z,100474.19
2022-07-30T03:07:42.081Z,100488.19
2022-07-30T03:12:46.049Z,100494.72
2022-07-30T03:17:52.216Z,100488.16
2022-07-30T03:22:55.054Z,100486.16
2022-07-30T03:27:57.887Z,100487.91
2022-07-30T03:32:59.876Z,100497.13
2022-07-30T03:38:02.467Z,100494.06
2022-07-30T03:43:04.320Z,100508.31
2022-07-30T03:48:20.224Z,100508.56
2022-07-30T03:53:25.001Z,100514.84
2022-07-30T03:58:26.559Z,100513.84
2022-07-30T04:03:31.700Z,100512.72
2022-07-30T04:08:33.295Z,100520.94
2022-07-30T04:13:34.763Z,100521.16
2022-07-30T04:18:45.060Z,100521.13
2022-07-30T04:24:02.269Z,100525.78
2022-07-30T04:29:09.404Z,100537.31
2022-07-30T04:34:15.894Z,100542.16
2022-07-30T04:39:17.435Z,100547.66
2022-07-30T04:44:19.895Z,100544.53
2022-07-30T04:49:22.860Z,100558.38
2022-07-30T04:54:25.438Z,100560.50
2022-07-30T04:59:28.499Z,100558.06
2022-07-30T05:04:32.454Z,100555.88
2022-07-30T05:09:34.532Z,100565.56
2022-07-30T05:14:36.050Z,100567.31
2022-07-30T05:19:37.557Z,100568.38
2022-07-30T05:24:39.035Z,100559.53
2022-07-30T05:29:40.491Z,100557.03
2022-07-30T05:34:43.121Z,100561.00
2022-07-30T05:40:02.702Z,100554.56
2022-07-30T05:45:05.765Z,100551.31
2022-07-30T05:50:07.535Z,100550.47
2022-07-30T05:55:09.750Z,100551.47
2022-07-30T06:00:12.080Z,100545.41
2022-07-30T06:05:13.544Z,100539.09
2022-07-30T06:10:15.039Z,100544.56
2022-07-30T06:15:20.560Z,100542.13
2022-07-30T06:20:27.495Z,100554.06
2022-07-30T06:25:28.966Z,100552.16
2022-07-30T06:30:31.269Z,100542.13
2022-07-30T06:35:34.270Z,100535.72
2022-07-30T06:40:35.781Z,100545.41
2022-07-30T06:45:37.432Z,100545.78
2022-07-30T06:50:39.308Z,100548.03
2022-07-30T06:55:40.842Z,100554.50
2022-07-30T07:00:44.791Z,100555.94
2022-07-30T07:05:46.255Z,100569.16
2022-07-30T07:10:47.755Z,100561.44
2022-07-30T07:15:49.376Z,100576.44
2022-07-30T07:20:50.867Z,100558.88
2022-07-30T07:25:52.399Z,100572.16
2022-07-30T07:30:53.917Z,100560.97
2022-07-30T07:35:55.477Z,100562.84
2022-07-30T07:40:56.946Z,100558.41
2022-07-30T07:45:59.121Z,100551.22
2022-07-30T07:51:01.028Z,100539.19
2022-07-30T07:56:02.754Z,100552.50
2022-07-30T08:01:05.862Z,100542.97
2022-07-30T08:06:10.804Z,100546.88
2022-07-30T08:11:14.778Z,100542.97
2022-07-30T08:16:16.338Z,100544.25
2022-07-30T08:21:17.980Z,100539.66
2022-07-30T08:26:19.566Z,100541.38
2022-07-30T08:31:21.023Z,100547.69
2022-07-30T08:36:25.777Z,100540.09
2022-07-30T08:41:28.329Z,100536.47
2022-07-30T08:46:33.314Z,100532.03
2022-07-30T08:51:35.736Z,100524.22
2022-07-30T08:56:37.563Z,100540.69
2022-07-30T09:01:39.133Z,100528.09
2022-07-30T09:06:40.967Z,100530.44
2022-07-30T09:11:44.356Z,100535.06
2022-07-30T09:16:46.359Z,100526.03
2022-07-30T09:21:58.965Z,100530.41
2022-07-30T09:27:03.256Z,100535.88
2022-07-30T09:32:09.597Z,100538.28
2022-07-30T09:37:12.713Z,100524.16
2022-07-30T09:42:23.524Z,100533.03
2022-07-30T09:47:34.479Z,100521.97
2022-07-30T09:52:43.912Z,100520.19
2022-07-30T09:58:02.137Z,100519.22
2022-07-30T10:03:21.793Z,100525.78
2022-07-30T10:08:50.705Z,100513.13
2022-07-30T10:13:57.894Z,100515.50
2022-07-30T10:19:00.676Z,100509.88
2022-07-30T10:24:02.334Z,100513.97
2022-07-30T10:29:04.894Z,100515.88
2022-07-30T10:34:07.683Z,100500.28
2022-07-30T10:39:13.309Z,100498.50
2022-07-30T10:44:28.207Z,100498.69
2022-07-30T10:49:30.320Z,100497.00
2022-07-30T10:54:47.340Z,100487.41
2022-07-30T11:00:03.740Z,100494.38
2022-07-30T11:05:18.120Z,100481.03
2022-07-30T11:10:40.229Z,100479.81
2022-07-30T11:16:11.657Z,100485.03
2022-07-30T11:21:16.129Z,100479.72
2022-07-30T11:26:40.902Z,100480.59
2022-07-30T11:31:56.536Z,100480.94
2022-07-30T11:37:21.815Z,100471.69
2022-07-30T11:42:34.491Z,100465.59
2022-07-30T11:47:36.083Z,100462.69
2022-07-30T11:52:37.680Z,100456.88
2022-07-30T11:57:40.519Z,100450.94
2022-07-30T12:02:42.096Z,100466.69
2022-07-30T12:07:43.652Z,100451.38
2022-07-30T12:12:45.947Z,100438.78
2022-07-30T12:17:47.416Z,100448.38
2022-07-30T12:22:48.991Z,100429.34
2022-07-30T12:27:52.393Z,100445.81
2022-07-30T12:32:54.018Z,100432.53
2022-07-30T12:38:03.371Z,100417.50
2022-07-30T12:43:04.906Z,100419.09
2022-07-30T12:48:15.197Z,100413.47
2022-07-30T12:53:16.963Z,100415.31
2022-07-30T12:58:18.420Z,100404.91
2022-07-30T13:03:21.971Z,100395.94
2022-07-30T13:08:49.406Z,100402.25
2022-07-30T13:13:51.684Z,100391.53
2022-07-30T13:18:53.310Z,100385.25
2022-07-30T13:23:54.843Z,100372.19
2022-07-30T13:29:01.376Z,100372.94
2022-07-30T13:34:04.726Z,100372.22
2022-07-30T13:39:06.348Z,100374.03
2022-07-30T13:44:07.842Z,100375.41
2022-07-30T13:49:10.770Z,100366.94
2022-07-30T13:54:12.562Z,100355.50
2022-07-30T13:59:15.457Z,100352.84
2022-07-30T14:04:16.945Z,100355.16
2022-07-30T14:09:18.428Z,100347.41
2022-07-30T14:14:20.110Z,100339.00
2022-07-30T14:19:23.174Z,100346.03
2022-07-30T14:24:28.096Z,100331.19
2022-07-30T14:29:29.579Z,100325.72
2022-07-30T14:34:31.062Z,100329.09
2022-07-30T14:39:33.324Z,100331.94
2022-07-30T14:44:34.879Z,100327.09
2022-07-30T14:49:36.485Z,100334.94
2022-07-30T14:54:38.725Z,100322.78
2022-07-30T14:59:40.150Z,100335.38
2022-07-30T15:04:41.897Z,100324.31
2022-07-30T15:09:43.398Z,100319.22
2022-07-30T15:14:48.211Z,100338.34
2022-07-30T15:19:51.189Z,100328.94
2022-07-30T15:24:53.091Z,100333.97
2022-07-30T15:29:54.689Z,100330.56
2022-07-30T15:34:56.457Z,100324.84
2022-07-30T15:39:57.994Z,100326.75
2022-07-30T15:45:16.665Z,100325.16
2022-07-30T15:50:19.430Z,100332.69
2022-07-30T15:55:20.873Z,100324.56
2022-07-30T16:00:23.010Z,100329.94
2022-07-30T16:05:24.705Z,100335.19
2022-07-30T16:10:26.227Z,100323.66
2022-07-30T16:15:27.819Z,100319.72
2022-07-30T16:20:29.327Z,100316.53
2022-07-30T16:25:30.847Z,100317.38
2022-07-30T16:30:32.336Z,100323.38
2022-07-30T16:35:33.808Z,100310.97
2022-07-30T16:40:51.005Z,100323.59
2022-07-30T16:45:52.624Z,100315.78
2022-07-30T16:50:54.851Z,100316.16
2022-07-30T16:55:59.468Z,100327.78
2022-07-30T17:01:00.990Z,100326.31
2022-07-30T17:06:02.533Z,100330.94
2022-07-30T17:11:09.783Z,100322.16
2022-07-30T17:16:13.339Z,100327.00
2022-07-30T17:21:15.056Z,100329.25
2022-07-30T17:26:16.830Z,100332.88
2022-07-30T17:31:18.288Z,100329.97
2022-07-30T17:36:20.054Z,100338.56
2022-07-30T17:41:21.521Z,100348.34
2022-07-30T17:46:23.145Z,100343.88
2022-07-30T17:51:24.802Z,100351.53
2022-07-30T17:56:26.903Z,100348.31
2022-07-30T18:01:29.023Z,100357.88
2022-07-30T18:06:30.620Z,100361.53
2022-07-30T18:11:32.596Z,100369.78
2022-07-30T18:16:34.148Z,100365.25
2022-07-30T18:21:35.844Z,100377.13
2022-07-30T18:26:40.283Z,100391.25
2022-07-30T18:31:41.775Z,100386.34
2022-07-30T18:36:43.406Z,100389.69
2022-07-30T18:41:44.877Z,100392.31
2022-07-30T18:46:46.535Z,100399.16
2022-07-30T18:51:48.241Z,100404.88
2022-07-30T18:56:49.749Z,100415.50
2022-07-30T19:01:51.270Z,100409.38
2022-07-30T19:06:53.280Z,100414.03
2022-07-30T19:11:54.740Z,100415.25
2022-07-30T19:16:59.417Z,100413.84
2022-07-30T19:22:01.991Z,100418.28
2022-07-30T19:27:04.398Z,100423.69
2022-07-30T19:32:06.583Z,100429.78
2022-07-30T19:37:08.329Z,100440.22
2022-07-30T19:42:09.825Z,100440.88
2022-07-30T19:47:11.849Z,100455.59
2022-07-30T19:52:23.621Z,100467.25
2022-07-30T19:57:53.044Z,100466.91
2022-07-30T20:02:49.270Z,100466.72
2022-07-30T20:07:50.807Z,100471.84
2022-07-30T20:12:56.031Z,100480.75
2022-07-30T20:17:58.409Z,100488.03
2022-07-30T20:22:59.987Z,100486.16
2022-07-30T20:28:01.828Z,100483.56
2022-07-30T20:33:04.381Z,100503.19
2022-07-30T20:38:10.176Z,100511.41
2022-07-30T20:43:11.914Z,100511.91
2022-07-30T20:48:17.367Z,100510.78
2022-07-30T20:58:48.997Z,100522.16
2022-07-30T21:03:50.494Z,100521.59
2022-07-30T21:08:51.961Z,100531.59
2022-07-30T21:13:53.969Z,100527.75
2022-07-30T21:18:56.629Z,100534.28
2022-07-30T21:23:59.289Z,100541.16
2022-07-30T21:29:01.639Z,100541.84
2022-07-30T21:34:03.132Z,100544.19
2022-07-30T21:39:05.203Z,100550.22
2022-07-30T21:44:07.022Z,100550.47
2022-07-30T21:49:08.685Z,100551.00
2022-07-30T21:54:10.192Z,100558.91
2022-07-30T21:59:12.167Z,100560.78
2022-07-30T22:04:14.746Z,100565.06
2022-07-30T22:09:34.353Z,100560.91
2022-07-30T22:14:36.270Z,100563.81
2022-07-30T22:19:37.847Z,100562.94
2022-07-30T22:24:39.503Z,100567.75
2022-07-30T22:29:41.727Z,100568.44
2022-07-30T22:34:44.987Z,100567.91
2022-07-30T22:39:51.745Z,100561.31
2022-07-30T22:44:54.768Z,100567.69
2022-07-30T22:49:57.017Z,100573.19
2022-07-30T22:55:09.271Z,100567.41
2022-07-30T23:00:14.269Z,100572.78
2022-07-30T23:05:29.024Z,100567.13
2022-07-30T23:10:31.054Z,100566.84
2022-07-30T23:12:29.357Z,100522.59
2022-07-30T23:15:33.755Z,100564.16
2022-07-30T23:20:35.238Z,100570.41
2022-07-30T23:25:38.968Z,100563.34
2022-07-30T23:30:40.708Z,100565.00
2022-07-30T23:35:43.625Z,100569.44
2022-07-30T23:40:45.064Z,100571.31
2022-07-30T23:45:46.531Z,100570.91
2022-07-30T23:50:48.696Z,100578.09
2022-07-30T23:55:50.752Z,100578.53
